createdAt,value
2022-09-23T00:00:37.888Z,77.22
2022-09-23T00:03:05.000Z,77.58
2022-09-23T00:05:31.925Z,77.26
2022-09-23T00:07:58.842Z,77.19
2022-09-23T00:10:28.390Z,77.22
2022-09-23T00:12:55.323Z,77.03
2022-09-23T00:15:21.796Z,76.73
2022-09-23T00:17:48.458Z,76.50
2022-09-23T00:20:14.833Z,76.63
2022-09-23T00:22:41.212Z,76.56
2022-09-23T00:25:08.838Z,76.57
2022-09-23T00:27:36.372Z,77.27
2022-09-23T00:30:05.140Z,77.16
2022-09-23T00:32:31.551Z,77.40
2022-09-23T00:34:58.115Z,76.96
2022-09-23T00:37:24.487Z,76.52
2022-09-23T00:39:50.819Z,77.12
2022-09-23T00:42:20.303Z,77.56
2022-09-23T00:44:55.846Z,77.55
2022-09-23T00:47:44.486Z,77.08
2022-09-23T00:50:18.788Z,77.29
2022-09-23T00:52:45.731Z,77.11
2022-09-23T00:55:17.852Z,77.52
2022-09-23T00:57:45.427Z,77.84
2022-09-23T01:00:12.967Z,77.52
2022-09-23T01:02:39.589Z,77.45
2022-09-23T01:05:07.444Z,77.85
2022-09-23T01:07:34.269Z,78.25
2022-09-23T01:10:01.838Z,78.23
2022-09-23T01:12:57.208Z,77.93
2022-09-23T01:15:46.396Z,77.11
2022-09-23T01:18:46.406Z,77.36
2022-09-23T01:21:55.197Z,77.60
2022-09-23T01:24:46.667Z,77.46
2022-09-23T01:27:47.279Z,77.50
2022-09-23T01:30:50.347Z,77.72
2022-09-23T01:33:46.117Z,77.63
2022-09-23T01:36:42.419Z,77.63
2022-09-23T01:39:12.946Z,77.21
2022-09-23T01:42:06.142Z,77.13
2022-09-23T01:44:53.971Z,77.17
2022-09-23T01:47:36.246Z,77.74
2022-09-23T01:50:28.714Z,77.75
2022-09-23T01:52:57.999Z,77.55
2022-09-23T01:55:31.734Z,77.46
2022-09-23T01:58:09.997Z,77.43
2022-09-23T02:00:42.073Z,78.06
2022-09-23T02:03:18.864Z,77.77
2022-09-23T02:05:50.822Z,78.05
2022-09-23T02:08:31.721Z,78.34
2022-09-23T02:11:07.030Z,78.12
2022-09-23T02:13:48.710Z,77.77
2022-09-23T02:16:23.175Z,77.56
2022-09-23T02:18:57.814Z,77.40
2022-09-23T02:21:29.646Z,77.52
2022-09-23T02:24:03.887Z,77.23
2022-09-23T02:26:36.047Z,76.71
2022-09-23T02:29:38.039Z,77.91
2022-09-23T02:32:21.311Z,78.03
2022-09-23T02:35:04.026Z,77.71
2022-09-23T02:37:48.735Z,78.45
2022-09-23T02:40:31.952Z,78.08
2022-09-23T02:43:42.708Z,77.74
2022-09-23T02:46:09.761Z,78.01
2022-09-23T02:48:42.610Z,77.63
2022-09-23T02:51:10.162Z,77.77
2022-09-23T02:53:37.499Z,77.41
2022-09-23T02:56:15.121Z,77.04
2022-09-23T02:58:41.729Z,77.21
2022-09-23T03:01:59.238Z,76.98
2022-09-23T03:04:53.593Z,77.17
2022-09-23T03:07:44.974Z,77.45
2022-09-23T03:10:29.823Z,77.07
2022-09-23T03:13:09.808Z,77.51
2022-09-23T03:15:51.998Z,77.40
2022-09-23T03:18:42.667Z,77.99
2022-09-23T03:21:12.258Z,78.10
2022-09-23T03:23:41.779Z,77.79
2022-09-23T03:26:17.393Z,77.69
2022-09-23T03:28:45.883Z,78.03
2022-09-23T03:31:14.153Z,77.87
2022-09-23T03:33:46.770Z,77.28
2022-09-23T03:36:16.683Z,77.70
2022-09-23T03:38:45.262Z,77.56
2022-09-23T03:41:15.413Z,77.77
2022-09-23T03:43:41.882Z,77.37
2022-09-23T03:46:08.368Z,76.98
2022-09-23T03:48:34.746Z,76.98
2022-09-23T03:51:17.685Z,77.67
2022-09-23T03:53:43.974Z,78.00
2022-09-23T03:56:10.366Z,77.71
2022-09-23T03:58:36.734Z,77.67
2022-09-23T04:01:03.064Z,77.85
2022-09-23T04:03:29.996Z,77.57
2022-09-23T04:05:56.394Z,77.97
2022-09-23T04:08:22.846Z,78.53
2022-09-23T04:10:52.883Z,78.17
2022-09-23T04:13:21.085Z,77.96
2022-09-23T04:15:50.193Z,77.90
2022-09-23T04:18:16.486Z,77.96
2022-09-23T04:20:43.279Z,78.08
2022-09-23T04:23:09.596Z,77.31
2022-09-23T04:25:35.867Z,77.33
2022-09-23T04:28:02.278Z,77.56
2022-09-23T04:30:28.557Z,77.86
2022-09-23T04:32:54.907Z,78.08
2022-09-23T04:35:21.177Z,78.26
2022-09-23T04:37:48.016Z,77.63
2022-09-23T04:40:14.562Z,77.42
2022-09-23T04:42:40.928Z,77.34
2022-09-23T04:45:07.734Z,77.93
2022-09-23T04:47:34.097Z,77.51
2022-09-23T04:50:00.361Z,77.39
2022-09-23T04:52:26.865Z,77.36
2022-09-23T04:54:53.148Z,77.30
2022-09-23T04:57:19.501Z,77.73
2022-09-23T04:59:45.768Z,77.62
2022-09-23T05:02:12.244Z,77.22
2022-09-23T05:04:38.623Z,77.22
2022-09-23T05:07:04.979Z,77.30
2022-09-23T05:09:33.322Z,77.13
2022-09-23T05:11:59.765Z,77.41
2022-09-23T05:14:26.043Z,77.61
2022-09-23T05:16:52.322Z,77.63
2022-09-23T05:19:18.914Z,77.98
2022-09-23T05:21:45.281Z,78.12
2022-09-23T05:24:12.149Z,78.04
2022-09-23T05:26:38.527Z,77.95
2022-09-23T05:29:04.951Z,78.21
2022-09-23T05:31:31.450Z,77.94
2022-09-23T05:34:00.237Z,78.10
2022-09-23T05:36:27.990Z,77.82
2022-09-23T05:38:54.712Z,77.71
2022-09-23T05:41:21.813Z,78.04
2022-09-23T05:43:50.472Z,78.01
2022-09-23T05:46:19.264Z,77.97
2022-09-23T05:48:46.329Z,78.15
2022-09-23T05:51:16.267Z,78.14
2022-09-23T05:53:45.024Z,77.87
2022-09-23T05:56:16.346Z,77.99
2022-09-23T05:58:43.226Z,78.01
2022-09-23T06:01:15.206Z,77.80
2022-09-23T06:03:41.652Z,77.80
2022-09-23T06:06:12.330Z,77.76
2022-09-23T06:08:38.749Z,78.13
2022-09-23T06:11:07.059Z,78.00
2022-09-23T06:13:35.025Z,78.62
2022-09-23T06:16:02.135Z,78.18
2022-09-23T06:18:28.558Z,78.19
2022-09-23T06:20:54.838Z,78.07
2022-09-23T06:23:25.310Z,78.06
2022-09-23T06:25:52.811Z,77.86
2022-09-23T06:28:19.972Z,77.95
2022-09-23T06:30:47.123Z,78.16
2022-09-23T06:33:14.554Z,78.27
2022-09-23T06:35:42.136Z,77.58
2022-09-23T06:38:11.208Z,77.68
2022-09-23T06:40:37.648Z,77.85
2022-09-23T06:43:03.996Z,77.65
2022-09-23T06:45:30.360Z,77.85
2022-09-23T06:47:58.205Z,78.19
2022-09-23T06:50:26.262Z,78.14
2022-09-23T06:52:56.488Z,78.21
2022-09-23T06:55:27.013Z,78.10
2022-09-23T06:57:54.436Z,77.71
2022-09-23T07:00:21.019Z,77.81
2022-09-23T07:02:47.572Z,77.68
2022-09-23T07:05:14.371Z,76.82
2022-09-23T07:07:40.831Z,77.14
2022-09-23T07:10:07.453Z,76.96
2022-09-23T07:12:34.542Z,76.69
2022-09-23T07:15:01.194Z,76.79
2022-09-23T07:17:27.689Z,76.74
2022-09-23T07:19:54.131Z,75.70
2022-09-23T07:22:24.409Z,75.35
2022-09-23T07:24:51.601Z,76.08
2022-09-23T07:27:19.449Z,75.84
2022-09-23T07:29:48.882Z,75.75
2022-09-23T07:32:15.602Z,75.34
2022-09-23T07:34:42.084Z,75.27
2022-09-23T07:37:08.993Z,75.13
2022-09-23T07:39:35.387Z,75.03
2022-09-23T07:42:02.022Z,74.49
2022-09-23T07:44:28.660Z,74.52
2022-09-23T07:46:55.011Z,74.47
2022-09-23T07:49:21.672Z,74.36
2022-09-23T07:51:48.062Z,74.46
2022-09-23T07:54:16.478Z,74.51
2022-09-23T07:56:44.089Z,74.40
2022-09-23T07:59:16.083Z,74.85
2022-09-23T08:01:48.297Z,75.04
2022-09-23T08:04:19.250Z,74.83
2022-09-23T08:06:48.190Z,74.75
2022-09-23T08:09:16.068Z,75.20
2022-09-23T08:11:42.567Z,74.52
2022-09-23T08:14:13.257Z,73.81
2022-09-23T08:16:41.004Z,73.73
2022-09-23T08:19:08.170Z,73.58
2022-09-23T08:21:34.938Z,72.86
2022-09-23T08:24:01.424Z,72.78
2022-09-23T08:26:28.485Z,72.79
2022-09-23T08:28:54.958Z,71.93
2022-09-23T08:31:22.589Z,71.31
2022-09-23T08:33:57.037Z,71.13
2022-09-23T08:36:24.726Z,71.11
2022-09-23T08:38:51.539Z,71.15
2022-09-23T08:41:40.808Z,71.15
2022-09-23T08:44:13.421Z,70.26
2022-09-23T08:47:00.182Z,69.28
2022-09-23T08:49:36.701Z,69.43
2022-09-23T08:52:11.960Z,68.30
2022-09-23T08:54:38.243Z,68.19
2022-09-23T08:57:05.752Z,67.95
2022-09-23T08:59:39.595Z,67.99
2022-09-23T09:02:18.043Z,68.04
2022-09-23T09:04:58.866Z,68.25
2022-09-23T09:07:36.601Z,68.01
2022-09-23T09:10:24.631Z,67.84
2022-09-23T09:12:59.742Z,66.68
2022-09-23T09:15:28.452Z,65.19
2022-09-23T09:18:18.798Z,64.84
2022-09-23T09:21:05.080Z,64.10
2022-09-23T09:23:37.397Z,57.37
2022-09-23T09:26:06.317Z,56.21
2022-09-23T09:28:43.436Z,58.70
2022-09-23T09:31:33.040Z,56.70
2022-09-23T09:34:04.997Z,56.02
2022-09-23T09:36:40.589Z,56.54
2022-09-23T09:39:12.749Z,54.16
2022-09-23T09:41:44.813Z,50.37
2022-09-23T09:44:38.679Z,47.13
2022-09-23T09:47:10.835Z,45.89
2022-09-23T09:50:06.110Z,42.66
2022-09-23T09:52:32.533Z,42.35
2022-09-23T09:55:14.031Z,45.91
2022-09-23T09:57:57.874Z,46.91
2022-09-23T10:00:24.223Z,47.07
2022-09-23T10:02:55.283Z,45.37
2022-09-23T10:05:33.759Z,46.62
2022-09-23T10:08:30.353Z,48.16
2022-09-23T10:11:00.945Z,47.20
2022-09-23T10:13:28.046Z,47.43
2022-09-23T10:15:54.413Z,47.60
2022-09-23T10:18:26.239Z,46.88
2022-09-23T10:20:52.590Z,46.03
2022-09-23T10:23:29.016Z,47.57
2022-09-23T10:26:05.309Z,48.74
2022-09-23T10:28:48.627Z,48.12
2022-09-23T10:31:36.672Z,47.80
2022-09-23T10:34:26.393Z,46.58
2022-09-23T10:37:02.592Z,47.26
2022-09-23T10:39:29.833Z,45.49
2022-09-23T10:42:03.681Z,46.44
2022-09-23T10:44:44.442Z,46.31
2022-09-23T10:47:30.441Z,46.25
2022-09-23T10:50:15.366Z,43.89
2022-09-23T10:52:54.750Z,46.16
2022-09-23T10:55:36.921Z,46.33
2022-09-23T10:58:27.986Z,46.15
2022-09-23T11:01:05.512Z,45.38
2022-09-23T11:03:56.664Z,44.42
2022-09-23T11:06:38.371Z,43.50
2022-09-23T11:09:21.722Z,42.12
2022-09-23T11:11:59.833Z,43.34
2022-09-23T11:14:29.093Z,44.80
2022-09-23T11:17:05.354Z,43.37
2022-09-23T11:19:49.924Z,44.59
2022-09-23T11:22:41.153Z,43.32
2022-09-23T11:25:52.499Z,44.25
2022-09-23T11:28:46.772Z,43.80
2022-09-23T11:31:42.012Z,43.13
2022-09-23T11:34:26.107Z,41.41
2022-09-23T11:36:59.154Z,42.68
2022-09-23T11:39:35.064Z,40.54
2022-09-23T11:42:02.777Z,40.42
2022-09-23T11:44:35.439Z,41.63
2022-09-23T11:47:08.876Z,40.50
2022-09-23T11:49:41.030Z,42.30
2022-09-23T11:52:20.748Z,43.50
2022-09-23T11:54:51.653Z,42.18
2022-09-23T11:57:48.853Z,43.18
2022-09-23T12:00:23.814Z,43.95
2022-09-23T12:03:05.474Z,42.59
2022-09-23T12:05:41.920Z,41.59
2022-09-23T12:08:24.076Z,41.98
2022-09-23T12:11:05.337Z,40.63
2022-09-23T12:14:00.470Z,41.63
2022-09-23T12:16:49.882Z,39.11
2022-09-23T12:20:04.586Z,38.80
2022-09-23T12:23:08.627Z,39.63
2022-09-23T12:25:46.852Z,40.30
2022-09-23T12:28:25.073Z,38.68
2022-09-23T12:30:54.813Z,37.75
2022-09-23T12:33:26.859Z,38.72
2022-09-23T12:35:55.849Z,39.95
2022-09-23T12:38:38.405Z,39.15
2022-09-23T12:41:22.742Z,39.27
2022-09-23T12:43:59.996Z,39.39
2022-09-23T12:46:27.728Z,37.56
2022-09-23T12:48:54.111Z,39.03
2022-09-23T12:51:20.841Z,39.00
2022-09-23T12:54:14.169Z,39.60
2022-09-23T12:56:40.396Z,38.81
2022-09-23T12:59:10.506Z,39.35
2022-09-23T13:01:38.052Z,39.74
2022-09-23T13:04:04.600Z,38.62
2022-09-23T13:06:41.565Z,38.08
2022-09-23T13:09:17.044Z,37.24
2022-09-23T13:11:47.477Z,38.14
2022-09-23T13:14:18.580Z,38.89
2022-09-23T13:16:45.755Z,38.29
2022-09-23T13:19:27.490Z,36.90
2022-09-23T13:21:54.121Z,37.33
2022-09-23T13:24:24.609Z,37.82
2022-09-23T13:26:56.023Z,38.67
2022-09-23T13:29:43.802Z,39.36
2022-09-23T13:32:15.791Z,39.59
2022-09-23T13:34:43.812Z,38.88
2022-09-23T13:37:22.728Z,37.63
2022-09-23T13:39:49.681Z,38.77
2022-09-23T13:42:25.901Z,39.29
2022-09-23T13:44:54.545Z,38.12
2022-09-23T13:47:21.592Z,38.35
2022-09-23T13:49:48.480Z,38.89
2022-09-23T13:52:27.768Z,39.27
2022-09-23T13:55:00.533Z,38.90
2022-09-23T13:57:34.379Z,39.30
2022-09-23T14:00:24.609Z,39.19
2022-09-23T14:02:52.321Z,39.84
2022-09-23T14:05:27.426Z,39.10
2022-09-23T14:07:56.313Z,39.48
2022-09-23T14:10:25.444Z,39.52
2022-09-23T14:12:54.356Z,39.31
2022-09-23T14:15:22.387Z,38.83
2022-09-23T14:17:52.252Z,39.69
2022-09-23T14:20:24.007Z,39.29
2022-09-23T14:23:06.432Z,39.14
2022-09-23T14:25:34.556Z,40.33
2022-09-23T14:28:05.176Z,40.07
2022-09-23T14:30:31.987Z,40.52
2022-09-23T14:33:05.540Z,40.49
2022-09-23T14:35:46.426Z,40.05
2022-09-23T14:38:20.875Z,38.47
2022-09-23T14:40:57.795Z,39.69
2022-09-23T14:43:27.487Z,40.93
2022-09-23T14:45:58.885Z,39.54
2022-09-23T14:48:28.459Z,39.29
2022-09-23T14:50:58.542Z,39.41
2022-09-23T14:53:42.014Z,39.37
2022-09-23T14:56:18.687Z,38.37
2022-09-23T14:58:55.948Z,39.17
2022-09-23T15:01:25.730Z,40.00
2022-09-23T15:04:11.205Z,39.12
2022-09-23T15:06:40.475Z,40.50
2022-09-23T15:09:07.150Z,40.06
2022-09-23T15:11:35.487Z,39.76
2022-09-23T15:14:33.219Z,41.01
2022-09-23T15:16:54.485Z,40.06
2022-09-23T15:19:22.769Z,41.72
2022-09-23T15:21:53.418Z,39.68
2022-09-23T15:24:42.521Z,39.84
2022-09-23T15:27:22.861Z,40.19
2022-09-23T15:29:50.104Z,40.25
2022-09-23T15:32:16.460Z,40.80
2022-09-23T15:34:42.835Z,41.22
2022-09-23T15:37:11.342Z,41.77
2022-09-23T15:39:37.804Z,41.30
2022-09-23T15:42:04.316Z,41.94
2022-09-23T15:44:30.606Z,41.83
2022-09-23T15:46:57.751Z,41.98
2022-09-23T15:49:34.983Z,41.93
2022-09-23T15:52:02.645Z,42.01
2022-09-23T15:54:29.862Z,42.24
2022-09-23T15:56:56.369Z,43.11
2022-09-23T15:59:23.447Z,43.42
2022-09-23T16:01:52.050Z,43.11
2022-09-23T16:04:18.603Z,43.57
2022-09-23T16:06:45.160Z,43.79
2022-09-23T16:09:11.877Z,43.99
2022-09-23T16:11:38.249Z,44.06
2022-09-23T16:14:04.612Z,44.65
2022-09-23T16:16:31.063Z,44.33
2022-09-23T16:18:57.427Z,45.31
2022-09-23T16:21:26.327Z,46.83
2022-09-23T16:23:53.354Z,47.38
2022-09-23T16:26:28.940Z,46.64
2022-09-23T16:28:56.650Z,47.03
2022-09-23T16:31:24.497Z,48.17
2022-09-23T16:33:52.277Z,49.38
2022-09-23T16:36:27.440Z,50.68
2022-09-23T16:38:54.722Z,52.25
2022-09-23T16:41:25.583Z,53.70
2022-09-23T16:43:52.498Z,54.35
2022-09-23T16:46:20.187Z,54.25
2022-09-23T16:48:52.114Z,54.76
2022-09-23T16:51:21.420Z,56.81
2022-09-23T16:53:49.156Z,56.87
2022-09-23T16:56:16.544Z,57.30
2022-09-23T16:58:43.698Z,58.29
2022-09-23T17:01:15.042Z,58.74
2022-09-23T17:03:41.369Z,59.22
2022-09-23T17:06:10.366Z,59.74
2022-09-23T17:08:36.866Z,59.58
2022-09-23T17:11:03.322Z,59.16
2022-09-23T17:13:29.918Z,60.04
2022-09-23T17:15:56.492Z,60.28
2022-09-23T17:18:22.879Z,61.64
2022-09-23T17:21:02.407Z,61.00
2022-09-23T17:23:30.581Z,61.39
2022-09-23T17:25:58.233Z,62.65
2022-09-23T17:28:24.594Z,61.67
2022-09-23T17:30:55.902Z,62.69
2022-09-23T17:33:22.185Z,62.16
2022-09-23T17:35:48.567Z,62.00
2022-09-23T17:38:14.943Z,63.02
2022-09-23T17:40:41.262Z,62.97
2022-09-23T17:43:08.063Z,63.18
2022-09-23T17:45:37.582Z,63.54
2022-09-23T17:48:03.910Z,64.29
2022-09-23T17:50:30.297Z,65.06
2022-09-23T17:52:58.615Z,65.05
2022-09-23T17:55:25.601Z,65.22
2022-09-23T17:57:51.876Z,65.54
2022-09-23T18:00:18.287Z,65.25
2022-09-23T18:02:44.854Z,65.58
2022-09-23T18:05:11.341Z,66.22
2022-09-23T18:07:37.707Z,65.82
2022-09-23T18:10:04.384Z,66.11
2022-09-23T18:12:30.753Z,66.08
2022-09-23T18:14:57.172Z,66.18
2022-09-23T18:17:23.456Z,65.67
2022-09-23T18:19:49.892Z,65.98
2022-09-23T18:22:16.242Z,66.39
2022-09-23T18:24:42.594Z,67.25
2022-09-23T18:27:08.866Z,67.23
2022-09-23T18:29:35.956Z,67.08
2022-09-23T18:32:02.799Z,67.35
2022-09-23T18:34:29.640Z,67.23
2022-09-23T18:36:55.986Z,67.44
2022-09-23T18:39:22.397Z,67.81
2022-09-23T18:41:48.793Z,68.09
2022-09-23T18:44:16.121Z,68.07
2022-09-23T18:46:42.823Z,68.40
2022-09-23T18:49:09.373Z,68.01
2022-09-23T18:51:38.504Z,68.42
2022-09-23T18:54:07.116Z,68.18
2022-09-23T18:56:39.484Z,67.81
2022-09-23T18:59:07.403Z,68.04
2022-09-23T19:01:37.647Z,68.49
2022-09-23T19:04:04.992Z,68.58
2022-09-23T19:06:32.887Z,69.09
2022-09-23T19:08:59.422Z,68.77
2022-09-23T19:11:25.763Z,68.34
2022-09-23T19:13:56.707Z,68.95
2022-09-23T19:16:23.957Z,69.56
2022-09-23T19:18:51.148Z,69.83
2022-09-23T19:21:20.160Z,70.20
2022-09-23T19:23:49.304Z,69.51
2022-09-23T19:26:18.887Z,69.55
2022-09-23T19:28:54.121Z,69.59
2022-09-23T19:31:25.709Z,69.92
2022-09-23T19:34:00.578Z,69.88
2022-09-23T19:36:34.604Z,70.18
2022-09-23T19:39:03.373Z,69.90
2022-09-23T19:41:31.488Z,70.02
2022-09-23T19:43:58.367Z,70.36
2022-09-23T19:46:24.822Z,70.28
2022-09-23T19:48:51.160Z,70.42
2022-09-23T19:51:17.438Z,70.51
2022-09-23T19:53:43.806Z,71.35
2022-09-23T19:56:10.088Z,71.05
2022-09-23T19:58:36.361Z,70.75
2022-09-23T20:01:07.234Z,70.52
2022-09-23T20:03:33.741Z,70.74
2022-09-23T20:06:00.026Z,70.89
2022-09-23T20:08:26.378Z,71.04
2022-09-23T20:10:53.054Z,71.15
2022-09-23T20:13:19.347Z,71.45
2022-09-23T20:15:46.669Z,71.32
2022-09-23T20:18:13.102Z,71.33
2022-09-23T20:20:39.806Z,71.49
2022-09-23T20:23:06.190Z,71.60
2022-09-23T20:25:32.560Z,71.60
2022-09-23T20:27:58.830Z,71.61
2022-09-23T20:30:25.168Z,71.62
2022-09-23T20:32:51.438Z,71.96
2022-09-23T20:35:17.876Z,71.68
2022-09-23T20:37:44.143Z,71.88
2022-09-23T20:40:10.727Z,72.42
2022-09-23T20:42:37.195Z,72.43
2022-09-23T20:45:03.812Z,72.62
2022-09-23T20:47:32.745Z,72.90
2022-09-23T20:49:59.426Z,72.93
2022-09-23T20:52:26.153Z,73.18
2022-09-23T20:54:52.521Z,73.41
2022-09-23T20:57:19.050Z,73.20
2022-09-23T20:59:52.090Z,73.43
2022-09-23T21:02:18.737Z,73.71
2022-09-23T21:04:45.160Z,73.66
2022-09-23T21:07:11.604Z,73.28
2022-09-23T21:09:37.878Z,73.73
2022-09-23T21:12:04.232Z,73.85
2022-09-23T21:14:30.922Z,74.28
2022-09-23T21:16:57.273Z,73.82
2022-09-23T21:19:23.618Z,73.94
2022-09-23T21:21:49.995Z,73.89
2022-09-23T21:24:48.745Z,73.61
2022-09-23T21:27:02.856Z,74.08
2022-09-23T21:29:29.262Z,74.46
2022-09-23T21:31:55.605Z,74.12
2022-09-23T21:34:22.018Z,74.59
2022-09-23T21:36:48.404Z,74.53
2022-09-23T21:39:14.824Z,74.57
2022-09-23T21:41:41.099Z,75.05
2022-09-23T21:44:07.731Z,75.71
2022-09-23T21:46:34.385Z,75.47
2022-09-23T21:49:01.329Z,75.50
2022-09-23T21:51:30.434Z,76.00
2022-09-23T21:53:58.099Z,75.63
2022-09-23T21:56:30.158Z,75.53
2022-09-23T21:58:58.280Z,75.45
2022-09-23T22:01:29.584Z,75.64
2022-09-23T22:04:01.206Z,76.16
2022-09-23T22:06:28.315Z,76.20
2022-09-23T22:08:58.123Z,76.17
2022-09-23T22:11:26.415Z,76.33
2022-09-23T22:13:52.757Z,76.24
2022-09-23T22:16:19.264Z,76.23
2022-09-23T22:18:45.700Z,76.14
2022-09-23T22:21:12.017Z,76.15
2022-09-23T22:23:38.519Z,76.68
2022-09-23T22:26:04.930Z,76.43
2022-09-23T22:28:32.872Z,76.77
2022-09-23T22:30:59.185Z,76.85
2022-09-23T22:33:25.596Z,76.77
2022-09-23T22:35:52.234Z,76.63
2022-09-23T22:38:18.835Z,76.62
2022-09-23T22:40:45.289Z,76.86
2022-09-23T22:43:11.592Z,77.02
2022-09-23T22:45:38.122Z,76.67
2022-09-23T22:48:04.830Z,77.15
2022-09-23T22:50:31.492Z,76.72
2022-09-23T22:52:57.777Z,76.41
2022-09-23T22:55:24.064Z,76.55
2022-09-23T22:57:50.702Z,76.94
2022-09-23T23:00:16.994Z,77.00
2022-09-23T23:02:43.354Z,77.13
2022-09-23T23:05:10.167Z,77.16
2022-09-23T23:07:36.597Z,77.31
2022-09-23T23:10:03.629Z,77.22
2022-09-23T23:12:30.070Z,77.14
2022-09-23T23:14:56.411Z,77.49
2022-09-23T23:17:22.763Z,77.44
2022-09-23T23:19:49.095Z,77.76
2022-09-23T23:22:15.536Z,77.52
2022-09-23T23:24:42.060Z,77.68
2022-09-23T23:27:08.549Z,77.53
2022-09-23T23:29:34.899Z,77.49
2022-09-23T23:32:01.325Z,77.48
2022-09-23T23:34:27.975Z,77.58
2022-09-23T23:36:54.769Z,78.25
2022-09-23T23:39:22.919Z,78.48
2022-09-23T23:41:52.576Z,78.52
2022-09-23T23:44:18.866Z,78.35
2022-09-23T23:46:45.253Z,78.79
2022-09-23T23:49:11.617Z,78.67
2022-09-23T23:51:37.878Z,78.64
2022-09-23T23:54:04.499Z,78.64
2022-09-23T23:56:31.101Z,78.58
2022-09-23T23:58:59.689Z,78.99
